createdAt,value
2017-11-08T00:01:25.596Z,28.90
2017-11-08T00:03:53.071Z,29.40
2017-11-08T00:06:20.577Z,26.47
2017-11-08T00:08:48.056Z,29.57
2017-11-08T00:11:15.556Z,26.57
2017-11-08T00:13:43.047Z,28.03
2017-11-08T00:16:10.543Z,28.00
2017-11-08T00:18:38.788Z,26.37
2017-11-08T00:21:06.283Z,30.80
2017-11-08T00:23:35.702Z,26.83
2017-11-08T00:26:03.203Z,25.93
2017-11-08T00:28:30.679Z,28.63
2017-11-08T00:30:58.192Z,27.53
2017-11-08T00:33:25.680Z,26.90
2017-11-08T00:35:53.179Z,26.70
2017-11-08T00:38:20.663Z,24.90
2017-11-08T00:40:48.168Z,29.53
2017-11-08T00:43:15.647Z,25.40
2017-11-08T00:45:43.151Z,27.30
2017-11-08T00:48:11.399Z,27.47
2017-11-08T00:50:38.892Z,28.53
2017-11-08T00:53:10.224Z,24.03
2017-11-08T00:55:37.737Z,31.83
2017-11-08T00:58:05.983Z,28.77
2017-11-08T01:00:34.420Z,27.40
2017-11-08T01:03:02.659Z,26.93
2017-11-08T01:05:30.169Z,25.47
2017-11-08T01:07:58.420Z,24.70
2017-11-08T01:10:25.925Z,26.70
2017-11-08T01:12:54.174Z,25.43
2017-11-08T01:15:21.673Z,25.97
2017-11-08T01:17:49.156Z,27.23
2017-11-08T01:20:17.424Z,29.50
2017-11-08T01:22:44.920Z,28.10
2017-11-08T01:25:13.192Z,25.17
2017-11-08T01:27:40.683Z,24.73
2017-11-08T01:30:08.189Z,33.70
2017-11-08T01:32:35.672Z,25.93
2017-11-08T01:35:03.156Z,27.67
2017-11-08T01:37:36.215Z,26.50
2017-11-08T01:40:03.704Z,26.03
2017-11-08T01:42:32.995Z,23.20
2017-11-08T01:45:00.472Z,26.73
2017-11-08T01:47:27.972Z,28.80
2017-11-08T01:49:55.451Z,28.97
2017-11-08T01:52:22.952Z,27.20
2017-11-08T01:54:51.195Z,27.60
2017-11-08T01:57:18.721Z,25.23
2017-11-08T01:59:46.201Z,34.20
2017-11-08T02:02:13.709Z,28.43
2017-11-08T02:04:41.188Z,25.00
2017-11-08T02:07:08.692Z,26.67
2017-11-08T02:09:36.940Z,27.93
2017-11-08T02:12:04.440Z,27.37
2017-11-08T02:14:32.688Z,27.77
2017-11-08T02:17:00.183Z,31.37
2017-11-08T02:19:27.701Z,28.87
2017-11-08T02:21:55.211Z,29.70
2017-11-08T02:24:22.696Z,28.73
2017-11-08T02:26:53.112Z,29.63
2017-11-08T02:29:20.589Z,25.87
2017-11-08T02:31:48.088Z,28.10
2017-11-08T02:34:16.349Z,31.60
2017-11-08T02:36:43.847Z,30.50
2017-11-08T02:39:12.100Z,29.77
2017-11-08T02:41:39.604Z,29.63
2017-11-08T02:44:07.847Z,27.60
2017-11-08T02:46:35.348Z,27.17
2017-11-08T02:49:02.824Z,29.67
2017-11-08T02:51:31.093Z,28.90
2017-11-08T02:53:58.584Z,28.23
2017-11-08T02:56:26.852Z,36.17
2017-11-08T02:58:54.326Z,30.10
2017-11-08T03:01:21.824Z,32.53
2017-11-08T03:03:50.067Z,32.53
2017-11-08T03:06:17.563Z,33.30
2017-11-08T03:08:45.045Z,27.93
2017-11-08T03:11:13.308Z,25.63
2017-11-08T03:13:40.796Z,25.80
2017-11-08T03:16:09.068Z,27.77
2017-11-08T03:18:36.555Z,27.33
2017-11-08T03:21:04.815Z,28.53
2017-11-08T03:23:32.297Z,27.33
2017-11-08T03:25:59.805Z,29.77
2017-11-08T03:28:27.286Z,29.63
2017-11-08T03:30:54.800Z,28.50
2017-11-08T03:33:22.277Z,27.00
2017-11-08T03:35:49.785Z,27.60
2017-11-08T03:38:17.261Z,28.60
2017-11-08T03:40:45.542Z,25.27
2017-11-08T03:43:13.026Z,23.83
2017-11-08T03:45:40.509Z,27.73
2017-11-08T03:48:08.011Z,28.90
2017-11-08T03:50:35.492Z,28.40
2017-11-08T03:53:03.773Z,25.30
2017-11-08T03:55:31.257Z,30.93
2017-11-08T03:57:59.524Z,29.23
2017-11-08T04:00:27.021Z,32.27
2017-11-08T04:02:55.307Z,25.87
2017-11-08T04:05:23.569Z,28.73
2017-11-08T04:07:51.075Z,26.93
2017-11-08T04:10:18.564Z,31.13
2017-11-08T04:12:46.065Z,26.97
2017-11-08T04:15:13.544Z,29.53
2017-11-08T04:17:41.045Z,29.73
2017-11-08T04:20:09.300Z,33.70
2017-11-08T04:22:36.799Z,29.80
2017-11-08T04:25:05.055Z,30.07
2017-11-08T04:27:32.556Z,29.70
2017-11-08T04:30:00.799Z,29.00
2017-11-08T04:32:28.299Z,31.90
2017-11-08T04:34:55.780Z,30.73
2017-11-08T04:37:24.057Z,35.90
2017-11-08T04:39:51.538Z,27.40
2017-11-08T04:42:19.811Z,26.77
2017-11-08T04:44:47.290Z,30.13
2017-11-08T04:47:14.803Z,32.60
2017-11-08T04:49:42.288Z,33.77
2017-11-08T04:52:09.788Z,28.73
2017-11-08T04:54:37.267Z,33.07
2017-11-08T04:57:04.771Z,30.30
2017-11-08T04:59:32.253Z,31.20
2017-11-08T05:01:59.749Z,36.67
2017-11-08T05:04:27.283Z,32.37
2017-11-08T05:06:54.784Z,27.77
2017-11-08T05:09:22.268Z,34.30
2017-11-08T05:11:49.776Z,37.10
2017-11-08T05:14:18.024Z,32.20
2017-11-08T05:16:45.531Z,29.60
2017-11-08T05:19:13.781Z,32.67
2017-11-08T05:21:41.281Z,31.30
2017-11-08T05:24:08.770Z,31.67
2017-11-08T05:26:36.280Z,33.30
2017-11-08T05:29:03.760Z,34.93
2017-11-08T05:31:31.261Z,32.00
2017-11-08T05:33:58.744Z,34.30
2017-11-08T05:36:27.004Z,34.47
2017-11-08T05:38:54.488Z,32.83
2017-11-08T05:41:23.658Z,34.80
2017-11-08T05:43:51.144Z,35.30
2017-11-08T05:46:18.642Z,32.73
2017-11-08T05:48:46.893Z,34.53
2017-11-08T05:51:14.404Z,33.07
2017-11-08T05:53:42.648Z,39.90
2017-11-08T05:56:10.129Z,38.40
2017-11-08T05:58:37.624Z,36.10
2017-11-08T06:01:05.100Z,34.60
2017-11-08T06:03:33.364Z,38.20
2017-11-08T06:06:00.844Z,34.73
2017-11-08T06:08:28.339Z,32.90
2017-11-08T06:10:56.585Z,37.90
2017-11-08T06:13:24.092Z,33.63
2017-11-08T06:15:52.346Z,36.47
2017-11-08T06:18:19.860Z,36.97
2017-11-08T06:20:47.352Z,37.77
2017-11-08T06:23:14.855Z,37.83
2017-11-08T06:25:42.349Z,35.60
2017-11-08T06:28:09.856Z,41.40
2017-11-08T06:30:37.338Z,38.87
2017-11-08T06:33:04.832Z,35.80
2017-11-08T06:35:32.308Z,37.40
2017-11-08T06:37:59.808Z,36.10
2017-11-08T06:40:28.140Z,38.17
2017-11-08T06:42:55.644Z,41.63
2017-11-08T06:45:23.122Z,37.87
2017-11-08T06:47:51.401Z,37.93
2017-11-08T06:50:18.881Z,36.00
2017-11-08T06:52:46.397Z,42.33
2017-11-08T06:55:13.876Z,43.77
2017-11-08T06:57:41.388Z,36.03
2017-11-08T07:00:09.817Z,40.57
2017-11-08T07:02:37.705Z,42.20
2017-11-08T07:05:05.192Z,40.13
2017-11-08T07:07:32.706Z,40.10
2017-11-08T07:10:00.193Z,47.70
2017-11-08T07:12:28.460Z,46.87
2017-11-08T07:14:55.951Z,46.53
2017-11-08T07:17:24.211Z,44.70
2017-11-08T07:19:51.688Z,42.70
2017-11-08T07:22:25.668Z,46.83
2017-11-08T07:24:53.150Z,48.13
2017-11-08T07:27:20.654Z,43.17
2017-11-08T07:29:48.903Z,45.63
2017-11-08T07:32:16.421Z,45.17
2017-11-08T07:34:44.681Z,76.27
2017-11-08T07:37:12.178Z,51.37
2017-11-08T07:39:40.424Z,46.03
2017-11-08T07:42:07.920Z,46.40
2017-11-08T07:44:35.397Z,46.10
2017-11-08T07:47:02.892Z,42.53
2017-11-08T07:49:30.374Z,49.77
2017-11-08T07:51:57.874Z,45.20
2017-11-08T07:54:25.360Z,41.57
2017-11-08T07:56:55.823Z,44.07
2017-11-08T07:59:26.008Z,43.00
2017-11-08T08:01:53.499Z,50.10
2017-11-08T08:04:20.980Z,42.30
2017-11-08T08:06:48.491Z,42.63
2017-11-08T08:09:15.975Z,49.33
2017-11-08T08:11:46.031Z,51.57
2017-11-08T08:14:13.516Z,85.47
2017-11-08T08:16:41.004Z,54.20
2017-11-08T08:19:09.280Z,56.07
2017-11-08T08:21:36.759Z,47.27
2017-11-08T08:24:04.255Z,44.23
2017-11-08T08:26:31.742Z,45.37
2017-11-08T08:29:01.839Z,45.00
2017-11-08T08:31:30.092Z,49.50
2017-11-08T08:33:57.597Z,49.83
2017-11-08T08:36:25.840Z,38.00
2017-11-08T08:38:53.339Z,45.77
2017-11-08T08:41:20.819Z,63.10
2017-11-08T08:43:49.087Z,45.90
2017-11-08T08:46:16.562Z,39.43
2017-11-08T08:48:44.066Z,38.80
2017-11-08T08:51:11.548Z,41.50
2017-11-08T08:53:39.049Z,42.70
2017-11-08T08:56:06.535Z,41.50
2017-11-08T08:58:34.028Z,44.70
2017-11-08T09:01:02.277Z,47.60
2017-11-08T09:03:29.779Z,42.77
2017-11-08T09:05:57.256Z,41.57
2017-11-08T09:08:25.526Z,50.63
2017-11-08T09:10:53.034Z,46.17
2017-11-08T09:13:20.537Z,41.50
2017-11-08T09:15:48.014Z,39.20
2017-11-08T09:18:15.516Z,42.10
2017-11-08T09:20:42.993Z,41.27
2017-11-08T09:23:11.260Z,44.47
2017-11-08T09:25:38.744Z,43.30
2017-11-08T09:28:07.012Z,43.90
2017-11-08T09:30:34.487Z,46.30
2017-11-08T09:33:02.101Z,39.07
2017-11-08T09:35:29.580Z,49.43
2017-11-08T09:38:02.851Z,44.40
2017-11-08T09:40:31.108Z,43.20
2017-11-08T09:42:58.622Z,46.90
2017-11-08T09:45:26.872Z,42.90
2017-11-08T09:47:54.396Z,43.77
2017-11-08T09:50:21.876Z,83.37
2017-11-08T09:52:49.377Z,54.47
2017-11-08T09:55:16.862Z,80.83
2017-11-08T09:57:44.366Z,62.33
2017-11-08T10:00:12.608Z,74.93
2017-11-08T10:02:40.104Z,63.27
2017-11-08T10:05:07.583Z,53.43
2017-11-08T10:07:35.855Z,53.57
2017-11-08T10:10:03.355Z,48.03
2017-11-08T10:12:30.918Z,42.40
2017-11-08T10:14:58.352Z,45.63
2017-11-08T10:17:25.848Z,49.30
2017-11-08T10:20:00.566Z,45.63
2017-11-08T10:22:30.906Z,49.00
2017-11-08T10:24:58.385Z,42.53
2017-11-08T10:27:26.662Z,43.37
2017-11-08T10:29:54.148Z,49.73
2017-11-08T10:32:22.422Z,50.10
2017-11-08T10:34:49.904Z,56.90
2017-11-08T10:37:17.379Z,58.30
2017-11-08T10:39:45.648Z,50.23
2017-11-08T10:42:13.095Z,53.60
2017-11-08T10:44:40.613Z,55.40
2017-11-08T10:47:08.118Z,53.13
2017-11-08T10:49:36.533Z,54.93
2017-11-08T10:52:04.783Z,56.93
2017-11-08T10:54:32.293Z,53.80
2017-11-08T10:57:00.537Z,57.53
2017-11-08T10:59:28.039Z,54.57
2017-11-08T11:01:55.526Z,61.13
2017-11-08T11:04:23.797Z,56.70
2017-11-08T11:06:51.276Z,61.20
2017-11-08T11:09:22.514Z,62.87
2017-11-08T11:11:49.993Z,58.80
2017-11-08T11:14:17.495Z,65.63
2017-11-08T11:16:44.981Z,58.80
2017-11-08T11:19:12.480Z,62.93
2017-11-08T11:21:39.966Z,65.57
2017-11-08T11:24:12.412Z,58.57
2017-11-08T11:26:41.722Z,59.73
2017-11-08T11:29:11.621Z,54.50
2017-11-08T11:31:39.873Z,59.50
2017-11-08T11:34:07.368Z,58.37
2017-11-08T11:36:34.850Z,61.63
2017-11-08T11:39:03.129Z,58.40
2017-11-08T11:41:31.373Z,60.73
2017-11-08T11:43:58.882Z,55.73
2017-11-08T11:46:26.371Z,57.33
2017-11-08T11:48:54.649Z,56.17
2017-11-08T11:51:25.917Z,53.73
2017-11-08T11:53:53.437Z,57.13
2017-11-08T11:56:20.920Z,53.57
2017-11-08T11:58:48.433Z,55.23
2017-11-08T12:01:15.921Z,60.87
2017-11-08T12:03:43.432Z,59.37
2017-11-08T12:06:10.934Z,57.23
2017-11-08T12:08:39.206Z,61.77
2017-11-08T12:11:06.742Z,60.50
2017-11-08T12:13:34.281Z,54.73
2017-11-08T12:16:02.517Z,54.63
2017-11-08T12:18:30.021Z,55.23
2017-11-08T12:20:57.504Z,51.10
2017-11-08T12:23:25.788Z,57.23
2017-11-08T12:25:54.037Z,54.67
2017-11-08T12:28:23.396Z,57.70
2017-11-08T12:30:51.670Z,55.70
2017-11-08T12:33:23.697Z,55.10
2017-11-08T12:35:51.186Z,58.83
2017-11-08T12:38:18.693Z,51.30
2017-11-08T12:40:46.199Z,51.90
2017-11-08T12:43:13.731Z,48.63
2017-11-08T12:45:41.998Z,56.33
2017-11-08T12:48:09.510Z,53.93
2017-11-08T12:50:36.997Z,48.70
2017-11-08T12:53:04.506Z,50.17
2017-11-08T12:55:31.990Z,56.00
2017-11-08T12:57:59.474Z,51.73
2017-11-08T13:00:27.745Z,48.30
2017-11-08T13:02:55.228Z,56.97
2017-11-08T13:05:27.536Z,55.63
2017-11-08T13:07:56.887Z,48.97
2017-11-08T13:10:25.285Z,47.87
2017-11-08T13:12:52.770Z,51.00
2017-11-08T13:15:20.284Z,51.50
2017-11-08T13:17:47.771Z,52.77
2017-11-08T13:20:15.286Z,54.37
2017-11-08T13:22:42.785Z,54.00
2017-11-08T13:25:11.049Z,50.87
2017-11-08T13:27:38.537Z,53.23
2017-11-08T13:30:06.798Z,51.80
2017-11-08T13:32:34.296Z,53.40
2017-11-08T13:35:02.563Z,51.80
2017-11-08T13:37:30.057Z,56.43
2017-11-08T13:39:58.329Z,52.87
2017-11-08T13:42:25.809Z,51.87
2017-11-08T13:44:54.078Z,51.70
2017-11-08T13:47:21.564Z,52.77
2017-11-08T13:49:49.066Z,53.17
2017-11-08T13:52:16.570Z,52.57
2017-11-08T13:54:44.078Z,51.07
2017-11-08T13:57:12.321Z,52.27
2017-11-08T13:59:39.829Z,50.73
2017-11-08T14:02:08.085Z,59.07
2017-11-08T14:04:35.584Z,49.90
2017-11-08T14:07:03.066Z,57.57
2017-11-08T14:09:31.333Z,54.00
2017-11-08T14:11:58.822Z,54.37
2017-11-08T14:14:27.100Z,51.50
2017-11-08T14:16:54.589Z,54.23
2017-11-08T14:19:22.866Z,50.70
2017-11-08T14:21:50.340Z,52.27
2017-11-08T14:24:18.609Z,53.03
2017-11-08T14:26:46.097Z,49.17
2017-11-08T14:29:19.986Z,56.67
2017-11-08T14:31:47.481Z,51.13
2017-11-08T14:34:14.979Z,57.37
2017-11-08T14:36:42.471Z,54.10
2017-11-08T14:39:09.973Z,56.60
2017-11-08T14:41:39.237Z,52.93
2017-11-08T14:44:06.746Z,61.43
2017-11-08T14:46:34.250Z,67.60
2017-11-08T14:49:02.512Z,59.00
2017-11-08T14:51:32.842Z,54.57
2017-11-08T14:54:00.341Z,54.93
2017-11-08T14:56:27.817Z,54.53
2017-11-08T14:58:56.088Z,54.20
2017-11-08T15:01:23.593Z,53.47
2017-11-08T15:03:51.103Z,50.37
2017-11-08T15:06:18.585Z,61.67
2017-11-08T15:08:46.085Z,55.80
2017-11-08T15:11:16.270Z,53.87
2017-11-08T15:13:43.782Z,52.03
2017-11-08T15:16:11.261Z,63.30
2017-11-08T15:18:39.528Z,54.80
2017-11-08T15:21:07.011Z,57.70
2017-11-08T15:23:34.497Z,53.80
2017-11-08T15:26:02.766Z,62.07
2017-11-08T15:28:30.247Z,54.40
2017-11-08T15:30:58.531Z,65.83
2017-11-08T15:33:26.008Z,57.00
2017-11-08T15:35:54.283Z,55.17
2017-11-08T15:38:22.533Z,55.17
2017-11-08T15:40:50.036Z,58.57
2017-11-08T15:43:18.454Z,53.80
2017-11-08T15:45:45.965Z,54.50
2017-11-08T15:48:13.450Z,59.10
2017-11-08T15:50:40.951Z,58.20
2017-11-08T15:53:09.217Z,55.00
2017-11-08T15:55:36.726Z,51.50
2017-11-08T15:58:04.215Z,50.83
2017-11-08T16:00:31.717Z,43.60
2017-11-08T16:02:59.201Z,57.73
2017-11-08T16:05:26.713Z,122.47
2017-11-08T16:07:54.202Z,130.00
2017-11-08T16:10:21.705Z,59.83
2017-11-08T16:12:51.161Z,51.40
2017-11-08T16:15:19.445Z,50.57
2017-11-08T16:17:51.538Z,48.67
2017-11-08T16:20:19.040Z,51.70
2017-11-08T16:22:46.517Z,48.50
2017-11-08T16:25:14.021Z,54.77
2017-11-08T16:27:42.273Z,59.90
2017-11-08T16:30:09.805Z,58.83
2017-11-08T16:32:37.289Z,58.60
2017-11-08T16:35:04.794Z,53.47
2017-11-08T16:37:32.277Z,63.23
2017-11-08T16:39:59.783Z,103.03
2017-11-08T16:42:27.283Z,57.00
2017-11-08T16:44:54.781Z,60.17
2017-11-08T16:47:22.271Z,53.90
2017-11-08T16:49:50.543Z,55.10
2017-11-08T16:52:18.029Z,55.77
2017-11-08T16:54:46.294Z,58.40
2017-11-08T16:57:13.781Z,55.90
2017-11-08T16:59:41.291Z,56.47
2017-11-08T17:02:08.778Z,61.40
2017-11-08T17:04:36.288Z,54.47
2017-11-08T17:07:03.772Z,58.50
2017-11-08T17:09:32.044Z,60.07
2017-11-08T17:11:59.536Z,52.30
2017-11-08T17:14:27.052Z,58.93
2017-11-08T17:16:54.536Z,64.37
2017-11-08T17:19:22.045Z,67.83
2017-11-08T17:21:49.559Z,69.03
2017-11-08T17:24:17.061Z,69.07
2017-11-08T17:26:44.550Z,65.80
2017-11-08T17:29:13.636Z,66.13
2017-11-08T17:31:41.153Z,60.33
2017-11-08T17:34:08.657Z,59.97
2017-11-08T17:36:36.146Z,64.63
2017-11-08T17:39:03.633Z,63.73
2017-11-08T17:41:31.893Z,58.40
2017-11-08T17:43:59.377Z,61.47
2017-11-08T17:46:26.896Z,71.33
2017-11-08T17:48:54.387Z,58.87
2017-11-08T17:51:21.897Z,57.73
2017-11-08T17:53:49.382Z,62.20
2017-11-08T17:56:17.654Z,62.30
2017-11-08T17:58:45.138Z,60.67
2017-11-08T18:01:12.654Z,60.90
2017-11-08T18:03:40.145Z,65.47
2017-11-08T18:06:07.640Z,66.57
2017-11-08T18:08:35.880Z,66.67
2017-11-08T18:11:03.390Z,61.77
2017-11-08T18:13:31.650Z,59.20
2017-11-08T18:15:59.157Z,61.27
2017-11-08T18:18:27.415Z,59.43
2017-11-08T18:20:54.921Z,58.00
2017-11-08T18:23:23.177Z,56.17
2017-11-08T18:25:50.686Z,58.20
2017-11-08T18:28:18.168Z,57.83
2017-11-08T18:30:45.673Z,55.80
2017-11-08T18:33:13.158Z,60.43
2017-11-08T18:35:40.658Z,57.83
2017-11-08T18:38:08.912Z,65.60
2017-11-08T18:40:36.421Z,52.10
2017-11-08T18:43:03.908Z,50.33
2017-11-08T18:45:31.413Z,58.53
2017-11-08T18:47:58.901Z,51.00
2017-11-08T18:50:26.406Z,56.23
2017-11-08T18:52:53.884Z,49.83
2017-11-08T18:55:21.378Z,51.87
2017-11-08T18:57:48.862Z,46.93
2017-11-08T19:00:16.365Z,44.70
2017-11-08T19:02:44.618Z,66.73
2017-11-08T19:05:12.117Z,67.10
2017-11-08T19:07:40.373Z,54.23
2017-11-08T19:10:07.881Z,49.10
2017-11-08T19:12:36.145Z,52.07
2017-11-08T19:15:03.645Z,49.70
2017-11-08T19:17:31.902Z,51.47
2017-11-08T19:19:59.403Z,46.00
2017-11-08T19:22:27.644Z,46.83
2017-11-08T19:24:55.161Z,52.70
2017-11-08T19:27:23.422Z,53.50
2017-11-08T19:29:50.936Z,50.23
2017-11-08T19:32:18.434Z,51.20
2017-11-08T19:34:45.944Z,56.20
2017-11-08T19:37:13.429Z,51.13
2017-11-08T19:39:41.701Z,59.80
2017-11-08T19:42:09.187Z,53.70
2017-11-08T19:44:37.462Z,54.60
2017-11-08T19:47:04.946Z,51.50
2017-11-08T19:49:33.201Z,75.47
2017-11-08T19:52:00.703Z,57.47
2017-11-08T19:54:28.953Z,43.37
2017-11-08T19:56:56.466Z,47.47
2017-11-08T19:59:24.713Z,49.17
2017-11-08T20:01:52.217Z,48.50
2017-11-08T20:04:20.465Z,53.30
2017-11-08T20:06:47.973Z,41.73
2017-11-08T20:09:16.217Z,45.43
2017-11-08T20:11:43.730Z,48.70
2017-11-08T20:14:11.989Z,54.47
2017-11-08T20:16:39.493Z,49.03
2017-11-08T20:19:07.752Z,48.03
2017-11-08T20:21:35.254Z,48.07
2017-11-08T20:24:03.506Z,47.50
2017-11-08T20:26:31.018Z,49.70
2017-11-08T20:28:58.505Z,50.63
2017-11-08T20:31:26.025Z,49.17
2017-11-08T20:33:53.504Z,48.17
2017-11-08T20:36:21.007Z,51.00
2017-11-08T20:38:48.484Z,49.90
2017-11-08T20:41:15.985Z,49.13
2017-11-08T20:43:43.465Z,66.50
2017-11-08T20:46:11.013Z,59.57
2017-11-08T20:48:38.492Z,51.50
2017-11-08T20:51:06.000Z,55.50
2017-11-08T20:53:33.476Z,47.57
2017-11-08T20:56:01.753Z,80.80
2017-11-08T20:58:29.240Z,65.80
2017-11-08T21:00:57.485Z,47.63
2017-11-08T21:03:24.991Z,53.87
2017-11-08T21:05:53.236Z,49.70
2017-11-08T21:08:20.738Z,48.97
2017-11-08T21:10:48.225Z,56.07
2017-11-08T21:13:16.495Z,54.07
2017-11-08T21:15:43.998Z,51.50
2017-11-08T21:18:11.500Z,52.00
2017-11-08T21:20:38.989Z,49.73
2017-11-08T21:23:06.492Z,53.33
2017-11-08T21:25:34.742Z,59.60
2017-11-08T21:28:02.251Z,56.80
2017-11-08T21:30:30.506Z,58.60
2017-11-08T21:32:58.014Z,60.37
2017-11-08T21:35:25.497Z,71.13
2017-11-08T21:37:52.998Z,53.87
2017-11-08T21:40:20.488Z,55.30
2017-11-08T21:42:47.993Z,56.20
2017-11-08T21:45:16.240Z,59.10
2017-11-08T21:47:43.762Z,61.73
2017-11-08T21:50:11.244Z,63.10
2017-11-08T21:52:40.367Z,59.03
2017-11-08T21:55:07.857Z,58.20
2017-11-08T21:57:35.366Z,58.50
2017-11-08T22:00:03.613Z,54.80
2017-11-08T22:02:31.092Z,53.57
2017-11-08T22:04:58.593Z,59.77
2017-11-08T22:07:26.837Z,59.10
2017-11-08T22:09:54.352Z,62.03
2017-11-08T22:12:22.606Z,58.70
2017-11-08T22:14:50.109Z,53.30
2017-11-08T22:17:18.353Z,59.70
2017-11-08T22:19:45.852Z,54.77
2017-11-08T22:22:13.339Z,59.70
2017-11-08T22:24:41.608Z,59.37
2017-11-08T22:27:09.872Z,64.23
2017-11-08T22:29:37.381Z,58.93
2017-11-08T22:32:04.869Z,58.53
2017-11-08T22:34:34.316Z,69.30
2017-11-08T22:37:01.799Z,98.97
2017-11-08T22:39:29.307Z,59.17
2017-11-08T22:41:57.552Z,65.60
2017-11-08T22:44:25.057Z,72.07
2017-11-08T22:46:53.310Z,61.47
2017-11-08T22:49:20.812Z,74.80
2017-11-08T22:51:49.060Z,66.83
2017-11-08T22:54:16.561Z,64.20
2017-11-08T22:56:44.052Z,62.63
2017-11-08T22:59:12.325Z,65.13
2017-11-08T23:01:39.804Z,56.77
2017-11-08T23:04:08.057Z,75.80
2017-11-08T23:06:35.559Z,95.77
2017-11-08T23:09:03.045Z,70.40
2017-11-08T23:11:33.705Z,72.53
2017-11-08T23:14:01.189Z,85.10
2017-11-08T23:16:28.695Z,68.20
2017-11-08T23:18:56.186Z,73.23
2017-11-08T23:21:24.466Z,68.33
2017-11-08T23:23:51.957Z,59.37
2017-11-08T23:26:19.466Z,75.43
2017-11-08T23:28:46.962Z,75.70
2017-11-08T23:31:14.474Z,63.30
2017-11-08T23:33:41.961Z,60.07
2017-11-08T23:36:09.460Z,67.67
2017-11-08T23:38:36.945Z,68.70
2017-11-08T23:41:04.444Z,63.13
2017-11-08T23:43:32.698Z,61.17
2017-11-08T23:46:00.208Z,70.13
2017-11-08T23:48:28.451Z,65.07
2017-11-08T23:50:55.958Z,59.80
2017-11-08T23:53:24.201Z,56.73
2017-11-08T23:55:54.301Z,55.40
2017-11-08T23:58:21.785Z,55.87
